sensor_id;sensor_type;location;lat;lon;timestamp;pressure;altitude;pressure_sealevel;temperature;humidity
19736;BME280;32064;49.310;8.646;2024-01-06T00:01:35;99377.91;;;9.58;63.42
19736;BME280;32064;49.310;8.646;2024-01-06T00:04:00;99382.06;;;9.61;63.55
19736;BME280;32064;49.310;8.646;2024-01-06T00:06:26;99382.91;;;9.61;64.49
19736;BME280;32064;49.310;8.646;2024-01-06T00:08:51;99377.69;;;9.50;63.86
19736;BME280;32064;49.310;8.646;2024-01-06T00:11:22;99373.16;;;9.52;63.36
19736;BME280;32064;49.310;8.646;2024-01-06T00:13:47;99370.75;;;9.60;63.28
19736;BME280;32064;49.310;8.646;2024-01-06T00:16:13;99372.84;;;9.66;64.42
19736;BME280;32064;49.310;8.646;2024-01-06T00:18:41;99369.97;;;9.70;64.10
19736;BME280;32064;49.310;8.646;2024-01-06T00:21:08;99369.84;;;9.71;63.34
19736;BME280;32064;49.310;8.646;2024-01-06T00:23:33;99373.16;;;9.73;63.00
19736;BME280;32064;49.310;8.646;2024-01-06T00:25:58;99373.31;;;9.72;63.08
19736;BME280;32064;49.310;8.646;2024-01-06T00:28:24;99365.44;;;9.72;63.98
19736;BME280;32064;49.310;8.646;2024-01-06T00:30:49;99369.72;;;9.73;62.60
19736;BME280;32064;49.310;8.646;2024-01-06T00:33:14;99371.38;;;9.74;63.64
19736;BME280;32064;49.310;8.646;2024-01-06T00:35:40;99371.13;;;9.77;62.86
19736;BME280;32064;49.310;8.646;2024-01-06T00:38:06;99377.22;;;9.77;63.08
19736;BME280;32064;49.310;8.646;2024-01-06T00:40:31;99373.88;;;9.75;64.06
19736;BME280;32064;49.310;8.646;2024-01-06T00:42:58;99371.50;;;9.72;63.22
19736;BME280;32064;49.310;8.646;2024-01-06T00:45:23;99371.63;;;9.71;63.26
19736;BME280;32064;49.310;8.646;2024-01-06T00:47:48;99363.19;;;9.67;64.61
19736;BME280;32064;49.310;8.646;2024-01-06T00:50:14;99372.84;;;9.66;64.51
19736;BME280;32064;49.310;8.646;2024-01-06T00:52:39;99374.09;;;9.62;64.28
19736;BME280;32064;49.310;8.646;2024-01-06T00:55:05;99383.31;;;9.57;64.08
19736;BME280;32064;49.310;8.646;2024-01-06T00:57:30;99386.03;;;9.55;63.44
19736;BME280;32064;49.310;8.646;2024-01-06T00:59:56;99382.34;;;9.58;64.18
19736;BME280;32064;49.310;8.646;2024-01-06T01:02:21;99380.53;;;9.58;64.43
19736;BME280;32064;49.310;8.646;2024-01-06T01:04:46;99384.38;;;9.54;64.67
19736;BME280;32064;49.310;8.646;2024-01-06T01:07:12;99388.47;;;9.47;64.40
19736;BME280;32064;49.310;8.646;2024-01-06T01:09:37;99384.44;;;9.43;64.23
19736;BME280;32064;49.310;8.646;2024-01-06T01:12:03;99392.56;;;9.40;64.70
19736;BME280;32064;49.310;8.646;2024-01-06T01:14:28;99389.31;;;9.36;65.38
19736;BME280;32064;49.310;8.646;2024-01-06T01:16:54;99396.50;;;9.34;64.38
19736;BME280;32064;49.310;8.646;2024-01-06T01:19:19;99395.09;;;9.30;64.38
19736;BME280;32064;49.310;8.646;2024-01-06T01:21:44;99403.53;;;9.34;64.85
19736;BME280;32064;49.310;8.646;2024-01-06T01:24:10;99408.91;;;9.32;65.21
19736;BME280;32064;49.310;8.646;2024-01-06T01:26:35;99402.44;;;9.36;64.68
19736;BME280;32064;49.310;8.646;2024-01-06T01:29:00;99409.38;;;9.37;64.10
19736;BME280;32064;49.310;8.646;2024-01-06T01:31:26;99410.06;;;9.39;64.55
19736;BME280;32064;49.310;8.646;2024-01-06T01:33:51;99412.59;;;9.41;65.45
19736;BME280;32064;49.310;8.646;2024-01-06T01:36:16;99423.44;;;9.36;65.23
19736;BME280;32064;49.310;8.646;2024-01-06T01:38:43;99425.81;;;9.39;65.34
19736;BME280;32064;49.310;8.646;2024-01-06T01:41:09;99430.97;;;9.41;64.92
19736;BME280;32064;49.310;8.646;2024-01-06T01:43:34;99429.66;;;9.35;65.11
19736;BME280;32064;49.310;8.646;2024-01-06T01:45:59;99435.50;;;9.39;65.40
19736;BME280;32064;49.310;8.646;2024-01-06T01:48:25;99435.25;;;9.42;64.72
19736;BME280;32064;49.310;8.646;2024-01-06T01:50:52;99440.38;;;9.43;64.76
19736;BME280;32064;49.310;8.646;2024-01-06T01:53:19;99443.00;;;9.43;65.32
19736;BME280;32064;49.310;8.646;2024-01-06T01:55:45;99440.13;;;9.47;64.52
19736;BME280;32064;49.310;8.646;2024-01-06T01:58:12;99442.03;;;9.44;64.72
19736;BME280;32064;49.310;8.646;2024-01-06T02:00:38;99455.56;;;9.40;64.87
19736;BME280;32064;49.310;8.646;2024-01-06T02:03:05;99459.72;;;9.31;65.63
19736;BME280;32064;49.310;8.646;2024-01-06T02:05:30;99456.41;;;9.29;65.69
19736;BME280;32064;49.310;8.646;2024-01-06T02:07:56;99459.63;;;9.33;65.21
19736;BME280;32064;49.310;8.646;2024-01-06T02:10:22;99459.88;;;9.30;65.69
19736;BME280;32064;49.310;8.646;2024-01-06T02:12:48;99460.44;;;9.33;65.52
19736;BME280;32064;49.310;8.646;2024-01-06T02:15:14;99463.31;;;9.30;65.13
19736;BME280;32064;49.310;8.646;2024-01-06T02:17:40;99470.00;;;9.34;65.33
19736;BME280;32064;49.310;8.646;2024-01-06T02:20:06;99464.75;;;9.34;65.88
19736;BME280;32064;49.310;8.646;2024-01-06T02:22:35;99462.34;;;9.31;66.00
19736;BME280;32064;49.310;8.646;2024-01-06T02:25:01;99475.69;;;9.39;64.87
19736;BME280;32064;49.310;8.646;2024-01-06T02:27:27;99477.00;;;9.45;64.94
19736;BME280;32064;49.310;8.646;2024-01-06T02:29:52;99474.97;;;9.49;65.85
19736;BME280;32064;49.310;8.646;2024-01-06T02:32:18;99478.75;;;9.56;64.98
19736;BME280;32064;49.310;8.646;2024-01-06T02:34:43;99480.81;;;9.52;64.67
19736;BME280;32064;49.310;8.646;2024-01-06T02:37:08;99478.78;;;9.44;65.05
19736;BME280;32064;49.310;8.646;2024-01-06T02:39:34;99489.53;;;9.41;64.60
19736;BME280;32064;49.310;8.646;2024-01-06T02:41:59;99494.31;;;9.36;64.85
19736;BME280;32064;49.310;8.646;2024-01-06T02:44:24;99489.31;;;9.33;65.26
19736;BME280;32064;49.310;8.646;2024-01-06T02:46:50;99489.91;;;9.37;66.63
19736;BME280;32064;49.310;8.646;2024-01-06T02:49:15;99502.91;;;9.38;65.03
19736;BME280;32064;49.310;8.646;2024-01-06T02:51:40;99495.63;;;9.42;65.66
19736;BME280;32064;49.310;8.646;2024-01-06T02:54:06;99493.00;;;9.42;65.25
19736;BME280;32064;49.310;8.646;2024-01-06T02:56:31;99497.41;;;9.41;65.03
19736;BME280;32064;49.310;8.646;2024-01-06T02:58:56;99506.25;;;9.40;65.04
19736;BME280;32064;49.310;8.646;2024-01-06T03:01:22;99505.19;;;9.43;66.07
19736;BME280;32064;49.310;8.646;2024-01-06T03:03:47;99503.25;;;9.45;65.05
19736;BME280;32064;49.310;8.646;2024-01-06T03:06:12;99503.84;;;9.49;66.01
19736;BME280;32064;49.310;8.646;2024-01-06T03:08:38;99507.56;;;9.46;65.07
19736;BME280;32064;49.310;8.646;2024-01-06T03:11:03;99507.81;;;9.43;65.44
19736;BME280;32064;49.310;8.646;2024-01-06T03:13:30;99506.00;;;9.43;66.09
19736;BME280;32064;49.310;8.646;2024-01-06T03:15:56;99503.00;;;9.48;66.01
19736;BME280;32064;49.310;8.646;2024-01-06T03:18:21;99505.75;;;9.47;65.47
19736;BME280;32064;49.310;8.646;2024-01-06T03:20:46;99511.00;;;9.47;66.20
19736;BME280;32064;49.310;8.646;2024-01-06T03:23:12;99502.88;;;9.50;66.13
19736;BME280;32064;49.310;8.646;2024-01-06T03:25:37;99501.66;;;9.54;67.06
19736;BME280;32064;49.310;8.646;2024-01-06T03:28:02;99506.47;;;9.60;65.81
19736;BME280;32064;49.310;8.646;2024-01-06T03:30:28;99508.34;;;9.69;65.74
19736;BME280;32064;49.310;8.646;2024-01-06T03:32:53;99512.13;;;9.76;67.21
19736;BME280;32064;49.310;8.646;2024-01-06T03:35:19;99509.84;;;9.83;65.65
19736;BME280;32064;49.310;8.646;2024-01-06T03:37:44;99503.38;;;9.87;66.02
19736;BME280;32064;49.310;8.646;2024-01-06T03:40:10;99513.88;;;9.87;65.80
19736;BME280;32064;49.310;8.646;2024-01-06T03:42:36;99505.88;;;9.88;66.52
19736;BME280;32064;49.310;8.646;2024-01-06T03:45:02;99512.28;;;9.96;65.75
19736;BME280;32064;49.310;8.646;2024-01-06T03:47:27;99514.34;;;9.92;67.29
19736;BME280;32064;49.310;8.646;2024-01-06T03:49:53;99509.41;;;9.99;66.10
19736;BME280;32064;49.310;8.646;2024-01-06T03:52:18;99514.78;;;9.97;66.73
19736;BME280;32064;49.310;8.646;2024-01-06T03:54:44;99507.38;;;10.02;66.26
19736;BME280;32064;49.310;8.646;2024-01-06T03:57:10;99502.69;;;10.06;66.37
19736;BME280;32064;49.310;8.646;2024-01-06T03:59:35;99499.81;;;10.09;67.18
19736;BME280;32064;49.310;8.646;2024-01-06T04:02:00;99500.69;;;9.98;67.76
19736;BME280;32064;49.310;8.646;2024-01-06T04:04:26;99503.66;;;10.05;67.18
19736;BME280;32064;49.310;8.646;2024-01-06T04:06:51;99507.31;;;10.14;67.63
19736;BME280;32064;49.310;8.646;2024-01-06T04:09:16;99501.97;;;10.04;66.69
19736;BME280;32064;49.310;8.646;2024-01-06T04:11:42;99496.81;;;10.14;67.04
19736;BME280;32064;49.310;8.646;2024-01-06T04:14:07;99496.94;;;10.12;67.63
19736;BME280;32064;49.310;8.646;2024-01-06T04:16:33;99499.56;;;10.12;67.97
19736;BME280;32064;49.310;8.646;2024-01-06T04:18:58;99498.97;;;10.08;67.00
19736;BME280;32064;49.310;8.646;2024-01-06T04:21:23;99503.59;;;10.16;66.30
19736;BME280;32064;49.310;8.646;2024-01-06T04:23:49;99498.09;;;10.19;67.51
19736;BME280;32064;49.310;8.646;2024-01-06T04:26:14;99502.00;;;10.25;66.82
19736;BME280;32064;49.310;8.646;2024-01-06T04:28:40;99497.47;;;10.27;66.37
19736;BME280;32064;49.310;8.646;2024-01-06T04:31:05;99496.28;;;10.31;67.28
19736;BME280;32064;49.310;8.646;2024-01-06T04:33:30;99493.22;;;10.36;67.47
19736;BME280;32064;49.310;8.646;2024-01-06T04:35:56;99485.22;;;10.37;66.40
19736;BME280;32064;49.310;8.646;2024-01-06T04:38:23;99495.59;;;10.39;67.57
19736;BME280;32064;49.310;8.646;2024-01-06T04:40:48;99490.13;;;10.42;66.76
19736;BME280;32064;49.310;8.646;2024-01-06T04:43:13;99486.88;;;10.38;67.74
19736;BME280;32064;49.310;8.646;2024-01-06T04:45:39;99488.44;;;10.41;66.04
19736;BME280;32064;49.310;8.646;2024-01-06T04:48:05;99484.84;;;10.42;66.72
19736;BME280;32064;49.310;8.646;2024-01-06T04:50:30;99493.44;;;10.44;66.19
19736;BME280;32064;49.310;8.646;2024-01-06T04:52:56;99494.13;;;10.46;65.57
19736;BME280;32064;49.310;8.646;2024-01-06T04:55:21;99485.41;;;10.45;66.14
19736;BME280;32064;49.310;8.646;2024-01-06T04:57:48;99497.22;;;10.51;66.55
19736;BME280;32064;49.310;8.646;2024-01-06T05:00:14;99499.44;;;10.55;67.20
19736;BME280;32064;49.310;8.646;2024-01-06T05:02:39;99493.34;;;10.55;67.29
19736;BME280;32064;49.310;8.646;2024-01-06T05:05:05;99506.13;;;10.60;66.41
19736;BME280;32064;49.310;8.646;2024-01-06T05:07:30;99500.88;;;10.60;67.37
19736;BME280;32064;49.310;8.646;2024-01-06T05:09:55;99505.16;;;10.61;66.61
19736;BME280;32064;49.310;8.646;2024-01-06T05:12:21;99488.53;;;10.60;66.08
19736;BME280;32064;49.310;8.646;2024-01-06T05:14:46;99502.13;;;10.65;66.86
19736;BME280;32064;49.310;8.646;2024-01-06T05:17:12;99511.84;;;10.65;66.48
19736;BME280;32064;49.310;8.646;2024-01-06T05:19:37;99509.31;;;10.63;65.36
19736;BME280;32064;49.310;8.646;2024-01-06T05:22:03;99517.09;;;10.65;65.53
19736;BME280;32064;49.310;8.646;2024-01-06T05:24:28;99520.41;;;10.67;67.21
19736;BME280;32064;49.310;8.646;2024-01-06T05:26:54;99515.75;;;10.70;64.94
19736;BME280;32064;49.310;8.646;2024-01-06T05:29:19;99517.41;;;10.71;66.39
19736;BME280;32064;49.310;8.646;2024-01-06T05:31:44;99512.03;;;10.73;66.99
19736;BME280;32064;49.310;8.646;2024-01-06T05:34:12;99515.34;;;10.75;65.23
19736;BME280;32064;49.310;8.646;2024-01-06T05:36:37;99510.91;;;10.75;65.40
19736;BME280;32064;49.310;8.646;2024-01-06T05:39:02;99512.59;;;10.76;66.68
19736;BME280;32064;49.310;8.646;2024-01-06T05:41:28;99512.44;;;10.78;64.90
19736;BME280;32064;49.310;8.646;2024-01-06T05:43:53;99512.31;;;10.79;66.89
19736;BME280;32064;49.310;8.646;2024-01-06T05:46:24;99520.31;;;10.78;66.64
19736;BME280;32064;49.310;8.646;2024-01-06T05:48:49;99522.69;;;10.81;65.37
19736;BME280;32064;49.310;8.646;2024-01-06T05:51:15;99524.50;;;10.81;65.03
19736;BME280;32064;49.310;8.646;2024-01-06T05:53:40;99520.22;;;10.79;65.60
19736;BME280;32064;49.310;8.646;2024-01-06T05:56:07;99518.78;;;10.75;65.51
19736;BME280;32064;49.310;8.646;2024-01-06T05:58:34;99525.84;;;10.75;65.69
19736;BME280;32064;49.310;8.646;2024-01-06T06:00:59;99528.75;;;10.72;66.88
19736;BME280;32064;49.310;8.646;2024-01-06T06:03:25;99532.22;;;10.72;65.81
19736;BME280;32064;49.310;8.646;2024-01-06T06:05:50;99534.34;;;10.78;66.08
19736;BME280;32064;49.310;8.646;2024-01-06T06:08:15;99539.72;;;10.77;65.45
19736;BME280;32064;49.310;8.646;2024-01-06T06:10:41;99542.34;;;10.77;65.48
19736;BME280;32064;49.310;8.646;2024-01-06T06:13:16;99547.50;;;10.78;66.30
19736;BME280;32064;49.310;8.646;2024-01-06T06:15:42;99543.31;;;10.76;65.59
19736;BME280;32064;49.310;8.646;2024-01-06T06:18:07;99542.47;;;10.75;65.75
19736;BME280;32064;49.310;8.646;2024-01-06T06:20:32;99545.78;;;10.68;65.60
19736;BME280;32064;49.310;8.646;2024-01-06T06:22:58;99555.13;;;10.61;67.05
19736;BME280;32064;49.310;8.646;2024-01-06T06:25:23;99565.97;;;10.67;66.06
19736;BME280;32064;49.310;8.646;2024-01-06T06:27:48;99574.69;;;10.68;64.90
19736;BME280;32064;49.310;8.646;2024-01-06T06:30:14;99581.63;;;10.69;64.92
19736;BME280;32064;49.310;8.646;2024-01-06T06:32:39;99575.78;;;10.65;65.47
19736;BME280;32064;49.310;8.646;2024-01-06T06:35:05;99581.56;;;10.59;65.55
19736;BME280;32064;49.310;8.646;2024-01-06T06:37:31;99586.31;;;10.65;65.82
19736;BME280;32064;49.310;8.646;2024-01-06T06:39:56;99583.41;;;10.68;66.65
19736;BME280;32064;49.310;8.646;2024-01-06T06:42:22;99584.63;;;10.64;65.54
19736;BME280;32064;49.310;8.646;2024-01-06T06:44:47;99579.78;;;10.60;66.89
19736;BME280;32064;49.310;8.646;2024-01-06T06:47:12;99582.00;;;10.64;65.93
19736;BME280;32064;49.310;8.646;2024-01-06T06:49:38;99581.75;;;10.67;65.85
19736;BME280;32064;49.310;8.646;2024-01-06T06:52:03;99593.22;;;10.66;66.55
19736;BME280;32064;49.310;8.646;2024-01-06T06:54:29;99596.25;;;10.62;65.50
19736;BME280;32064;49.310;8.646;2024-01-06T06:56:54;99601.94;;;10.67;66.46
19736;BME280;32064;49.310;8.646;2024-01-06T06:59:20;99608.75;;;10.69;66.18
19736;BME280;32064;49.310;8.646;2024-01-06T07:01:45;99610.56;;;10.69;66.37
19736;BME280;32064;49.310;8.646;2024-01-06T07:04:14;99612.94;;;10.51;66.26
19736;BME280;32064;49.310;8.646;2024-01-06T07:06:39;99621.38;;;10.54;66.29
19736;BME280;32064;49.310;8.646;2024-01-06T07:09:04;99618.19;;;10.51;64.80
19736;BME280;32064;49.310;8.646;2024-01-06T07:11:30;99619.47;;;10.56;65.61
19736;BME280;32064;49.310;8.646;2024-01-06T07:13:55;99627.41;;;10.45;67.03
19736;BME280;32064;49.310;8.646;2024-01-06T07:16:21;99630.81;;;10.57;66.99
19736;BME280;32064;49.310;8.646;2024-01-06T07:18:46;99639.19;;;10.62;66.13
19736;BME280;32064;49.310;8.646;2024-01-06T07:21:12;99632.47;;;10.58;66.65
19736;BME280;32064;49.310;8.646;2024-01-06T07:23:37;99640.47;;;10.68;65.01
19736;BME280;32064;49.310;8.646;2024-01-06T07:26:03;99645.31;;;10.72;64.96
19736;BME280;32064;49.310;8.646;2024-01-06T07:28:28;99645.06;;;10.75;65.65
19736;BME280;32064;49.310;8.646;2024-01-06T07:30:54;99647.31;;;10.80;64.67
19736;BME280;32064;49.310;8.646;2024-01-06T07:33:20;99653.81;;;10.76;67.01
19736;BME280;32064;49.310;8.646;2024-01-06T07:35:46;99651.63;;;10.81;66.97
19736;BME280;32064;49.310;8.646;2024-01-06T07:38:12;99655.09;;;10.82;64.65
19736;BME280;32064;49.310;8.646;2024-01-06T07:40:38;99660.69;;;10.88;66.04
19736;BME280;32064;49.310;8.646;2024-01-06T07:43:03;99670.22;;;10.89;65.96
19736;BME280;32064;49.310;8.646;2024-01-06T07:45:30;99669.88;;;10.94;66.61
19736;BME280;32064;49.310;8.646;2024-01-06T07:47:55;99679.31;;;10.96;65.09
19736;BME280;32064;49.310;8.646;2024-01-06T07:50:20;99666.78;;;10.89;65.40
19736;BME280;32064;49.310;8.646;2024-01-06T07:52:46;99664.84;;;10.91;65.30
19736;BME280;32064;49.310;8.646;2024-01-06T07:55:11;99667.22;;;10.94;64.72
19736;BME280;32064;49.310;8.646;2024-01-06T07:57:36;99678.06;;;11.00;65.02
19736;BME280;32064;49.310;8.646;2024-01-06T08:00:05;99687.38;;;11.05;66.44
19736;BME280;32064;49.310;8.646;2024-01-06T08:02:31;99682.81;;;11.07;64.82
19736;BME280;32064;49.310;8.646;2024-01-06T08:04:56;99686.16;;;11.09;66.35
19736;BME280;32064;49.310;8.646;2024-01-06T08:07:22;99683.66;;;11.07;66.86
19736;BME280;32064;49.310;8.646;2024-01-06T08:09:48;99695.97;;;11.07;64.82
19736;BME280;32064;49.310;8.646;2024-01-06T08:12:15;99692.41;;;11.08;65.57
19736;BME280;32064;49.310;8.646;2024-01-06T08:14:40;99699.22;;;11.10;65.19
19736;BME280;32064;49.310;8.646;2024-01-06T08:17:06;99695.50;;;11.13;65.51
19736;BME280;32064;49.310;8.646;2024-01-06T08:19:31;99695.09;;;11.17;66.46
19736;BME280;32064;49.310;8.646;2024-01-06T08:21:58;99694.25;;;11.17;67.01
19736;BME280;32064;49.310;8.646;2024-01-06T08:24:23;99698.69;;;11.16;65.87
19736;BME280;32064;49.310;8.646;2024-01-06T08:26:50;99704.25;;;11.23;65.66
19736;BME280;32064;49.310;8.646;2024-01-06T08:29:16;99707.59;;;11.25;65.89
19736;BME280;32064;49.310;8.646;2024-01-06T08:31:41;99708.31;;;11.27;66.14
19736;BME280;32064;49.310;8.646;2024-01-06T08:34:07;99707.09;;;11.31;65.91
19736;BME280;32064;49.310;8.646;2024-01-06T08:36:33;99725.78;;;11.28;66.18
19736;BME280;32064;49.310;8.646;2024-01-06T08:38:59;99714.53;;;11.26;67.16
19736;BME280;32064;49.310;8.646;2024-01-06T08:41:24;99724.94;;;11.28;66.00
19736;BME280;32064;49.310;8.646;2024-01-06T08:43:50;99728.72;;;11.35;65.00
19736;BME280;32064;49.310;8.646;2024-01-06T08:46:15;99726.59;;;11.29;65.05
19736;BME280;32064;49.310;8.646;2024-01-06T08:48:41;99727.19;;;11.32;65.48
19736;BME280;32064;49.310;8.646;2024-01-06T08:51:06;99729.81;;;11.32;66.96
19736;BME280;32064;49.310;8.646;2024-01-06T08:53:31;99734.84;;;11.35;66.30
19736;BME280;32064;49.310;8.646;2024-01-06T08:55:57;99736.34;;;11.38;66.16
19736;BME280;32064;49.310;8.646;2024-01-06T08:58:22;99742.09;;;11.43;66.95
19736;BME280;32064;49.310;8.646;2024-01-06T09:00:47;99740.16;;;11.45;64.72
19736;BME280;32064;49.310;8.646;2024-01-06T09:03:13;99745.16;;;11.48;64.77
19736;BME280;32064;49.310;8.646;2024-01-06T09:05:38;99743.38;;;11.49;66.31
19736;BME280;32064;49.310;8.646;2024-01-06T09:08:04;99746.25;;;11.45;66.80
19736;BME280;32064;49.310;8.646;2024-01-06T09:10:29;99750.69;;;11.45;66.80
19736;BME280;32064;49.310;8.646;2024-01-06T09:12:55;99748.44;;;11.40;66.66
19736;BME280;32064;49.310;8.646;2024-01-06T09:15:20;99750.38;;;11.38;65.84
19736;BME280;32064;49.310;8.646;2024-01-06T09:17:46;99744.72;;;11.43;65.84
19736;BME280;32064;49.310;8.646;2024-01-06T09:20:11;99746.25;;;11.45;67.17
19736;BME280;32064;49.310;8.646;2024-01-06T09:22:36;99736.81;;;11.43;65.66
19736;BME280;32064;49.310;8.646;2024-01-06T09:25:02;99746.25;;;11.45;65.79
19736;BME280;32064;49.310;8.646;2024-01-06T09:27:27;99753.44;;;11.43;65.71
19736;BME280;32064;49.310;8.646;2024-01-06T09:29:53;99749.16;;;11.42;66.44
19736;BME280;32064;49.310;8.646;2024-01-06T09:32:18;99755.84;;;11.46;67.25
19736;BME280;32064;49.310;8.646;2024-01-06T09:34:44;99756.41;;;11.50;65.92
19736;BME280;32064;49.310;8.646;2024-01-06T09:37:09;99750.81;;;11.43;65.67
19736;BME280;32064;49.310;8.646;2024-01-06T09:39:35;99746.06;;;11.37;67.92
19736;BME280;32064;49.310;8.646;2024-01-06T09:42:00;99753.59;;;11.42;67.46
19736;BME280;32064;49.310;8.646;2024-01-06T09:44:26;99762.78;;;11.48;66.05
19736;BME280;32064;49.310;8.646;2024-01-06T09:46:52;99761.53;;;11.52;67.61
19736;BME280;32064;49.310;8.646;2024-01-06T09:49:23;99763.75;;;11.46;66.95
19736;BME280;32064;49.310;8.646;2024-01-06T09:51:49;99772.06;;;11.52;66.37
19736;BME280;32064;49.310;8.646;2024-01-06T09:54:22;99767.31;;;11.45;66.75
19736;BME280;32064;49.310;8.646;2024-01-06T09:56:48;99772.22;;;11.50;66.76
19736;BME280;32064;49.310;8.646;2024-01-06T09:59:15;99768.16;;;11.46;65.93
19736;BME280;32064;49.310;8.646;2024-01-06T10:01:41;99771.66;;;11.46;67.80
19736;BME280;32064;49.310;8.646;2024-01-06T10:04:07;99765.97;;;11.51;65.88
19736;BME280;32064;49.310;8.646;2024-01-06T10:06:32;99768.22;;;11.56;66.85
19736;BME280;32064;49.310;8.646;2024-01-06T10:08:58;99768.81;;;11.59;67.51
19736;BME280;32064;49.310;8.646;2024-01-06T10:11:23;99761.44;;;11.53;67.62
19736;BME280;32064;49.310;8.646;2024-01-06T10:13:49;99772.25;;;11.60;67.25
19736;BME280;32064;49.310;8.646;2024-01-06T10:16:16;99770.78;;;11.67;66.49
19736;BME280;32064;49.310;8.646;2024-01-06T10:18:41;99764.16;;;11.73;67.22
19736;BME280;32064;49.310;8.646;2024-01-06T10:21:06;99776.81;;;11.79;67.63
19736;BME280;32064;49.310;8.646;2024-01-06T10:23:33;99764.09;;;11.84;66.92
19736;BME280;32064;49.310;8.646;2024-01-06T10:25:58;99763.63;;;11.79;65.66
19736;BME280;32064;49.310;8.646;2024-01-06T10:28:24;99770.44;;;11.81;67.67
19736;BME280;32064;49.310;8.646;2024-01-06T10:30:54;99774.63;;;11.84;66.86
19736;BME280;32064;49.310;8.646;2024-01-06T10:33:20;99767.31;;;11.87;66.05
19736;BME280;32064;49.310;8.646;2024-01-06T10:35:47;99766.09;;;11.71;65.86
19736;BME280;32064;49.310;8.646;2024-01-06T10:38:13;99769.44;;;11.73;65.90
19736;BME280;32064;49.310;8.646;2024-01-06T10:40:39;99756.81;;;11.76;67.38
19736;BME280;32064;49.310;8.646;2024-01-06T10:43:05;99756.94;;;11.75;66.34
19736;BME280;32064;49.310;8.646;2024-01-06T10:45:31;99770.13;;;11.75;67.03
19736;BME280;32064;49.310;8.646;2024-01-06T10:47:56;99766.28;;;11.79;66.95
19736;BME280;32064;49.310;8.646;2024-01-06T10:50:23;99776.56;;;11.82;67.05
19736;BME280;32064;49.310;8.646;2024-01-06T10:52:48;99776.19;;;11.86;68.10
19736;BME280;32064;49.310;8.646;2024-01-06T10:55:18;99772.38;;;11.79;67.79
19736;BME280;32064;49.310;8.646;2024-01-06T10:57:46;99767.56;;;11.84;66.46
19736;BME280;32064;49.310;8.646;2024-01-06T11:00:12;99774.25;;;11.88;nan
19736;BME280;32064;49.310;8.646;2024-01-06T11:02:39;99774.69;;;11.94;66.31
19736;BME280;32064;49.310;8.646;2024-01-06T11:05:04;99771.94;;;11.95;66.23
19736;BME280;32064;49.310;8.646;2024-01-06T11:07:33;99773.88;;;11.93;66.54
19736;BME280;32064;49.310;8.646;2024-01-06T11:10:06;99778.31;;;11.93;66.44
19736;BME280;32064;49.310;8.646;2024-01-06T11:12:34;99772.38;;;12.00;67.53
19736;BME280;32064;49.310;8.646;2024-01-06T11:15:00;99763.22;;;12.04;67.05
19736;BME280;32064;49.310;8.646;2024-01-06T11:17:54;99767.13;;;12.00;67.53
19736;BME280;32064;49.310;8.646;2024-01-06T11:20:24;99761.03;;;12.09;67.58
19736;BME280;32064;49.310;8.646;2024-01-06T11:22:50;99764.06;;;12.05;66.78
19736;BME280;32064;49.310;8.646;2024-01-06T11:25:18;99758.50;;;11.98;67.28
19736;BME280;32064;49.310;8.646;2024-01-06T11:27:46;99756.56;;;12.00;65.68
19736;BME280;32064;49.310;8.646;2024-01-06T11:30:25;99753.06;;;12.00;65.47
19736;BME280;32064;49.310;8.646;2024-01-06T11:32:52;99756.41;;;12.02;67.42
19736;BME280;32064;49.310;8.646;2024-01-06T11:35:21;99759.88;;;12.02;66.45
19736;BME280;32064;49.310;8.646;2024-01-06T11:40:22;99753.34;;;11.97;66.16
19736;BME280;32064;49.310;8.646;2024-01-06T11:42:59;99758.34;;;12.00;66.98
19736;BME280;32064;49.310;8.646;2024-01-06T11:45:25;99758.66;;;12.06;66.80
19736;BME280;32064;49.310;8.646;2024-01-06T11:47:54;99762.84;;;12.09;67.29
19736;BME280;32064;49.310;8.646;2024-01-06T11:50:21;99760.75;;;12.12;66.43
19736;BME280;32064;49.310;8.646;2024-01-06T11:52:46;99757.31;;;12.12;66.89
19736;BME280;32064;49.310;8.646;2024-01-06T11:55:12;99757.16;;;12.13;66.18
19736;BME280;32064;49.310;8.646;2024-01-06T11:57:37;99757.16;;;12.13;67.50
19736;BME280;32064;49.310;8.646;2024-01-06T12:00:04;99758.69;;;12.16;67.34
19736;BME280;32064;49.310;8.646;2024-01-06T12:02:29;99753.81;;;12.11;66.49
19736;BME280;32064;49.310;8.646;2024-01-06T12:04:55;99753.69;;;12.13;66.27
19736;BME280;32064;49.310;8.646;2024-01-06T12:07:21;99749.69;;;12.19;66.88
19736;BME280;32064;49.310;8.646;2024-01-06T12:09:52;99753.41;;;12.16;66.87
19736;BME280;32064;49.310;8.646;2024-01-06T12:12:25;99746.22;;;12.18;66.94
19736;BME280;32064;49.310;8.646;2024-01-06T12:14:50;99747.88;;;12.19;65.95
19736;BME280;32064;49.310;8.646;2024-01-06T12:17:16;99753.16;;;12.19;66.99
19736;BME280;32064;49.310;8.646;2024-01-06T12:19:42;99745.38;;;12.18;66.45
19736;BME280;32064;49.310;8.646;2024-01-06T12:22:11;99753.03;;;12.21;67.07
19736;BME280;32064;49.310;8.646;2024-01-06T12:24:38;99739.69;;;12.22;66.54
19736;BME280;32064;49.310;8.646;2024-01-06T12:27:03;99738.03;;;12.21;65.80
19736;BME280;32064;49.310;8.646;2024-01-06T12:29:29;99739.84;;;12.21;65.80
19736;BME280;32064;49.310;8.646;2024-01-06T12:31:55;99740.66;;;12.21;66.87
19736;BME280;32064;49.310;8.646;2024-01-06T12:34:21;99744.50;;;12.07;66.32
19736;BME280;32064;49.310;8.646;2024-01-06T12:36:47;99739.94;;;12.09;65.56
19736;BME280;32064;49.310;8.646;2024-01-06T12:39:13;99746.47;;;12.15;66.39
19736;BME280;32064;49.310;8.646;2024-01-06T12:41:42;99735.22;;;12.13;67.22
19736;BME280;32064;49.310;8.646;2024-01-06T12:44:08;99745.66;;;12.15;66.06
19736;BME280;32064;49.310;8.646;2024-01-06T12:46:34;99743.13;;;12.13;65.56
19736;BME280;32064;49.310;8.646;2024-01-06T12:48:59;99745.22;;;12.09;67.52
19736;BME280;32064;49.310;8.646;2024-01-06T12:51:25;99751.16;;;12.11;66.13
19736;BME280;32064;49.310;8.646;2024-01-06T12:53:50;99749.50;;;12.10;67.01
19736;BME280;32064;49.310;8.646;2024-01-06T12:56:16;99747.59;;;12.12;66.86
19736;BME280;32064;49.310;8.646;2024-01-06T12:58:42;99747.88;;;12.19;66.01